Almond, North Carolina
Current Conditions -  °F | °C
As of 10:35 PM on Monday 22 Dec 2014 (Local Time) from KRHP Reporting Station
Light Rain Light Rain  
Wind Chill:   Ceiling: 2300
Heat Index:   Visibility: 10mi
Dew Point:   Wind: 6mph
Humidity: 99%   Direction: 250°WSW
Pressure: 29.88"   Gusts: NA
Location:  35.37°N, 83.57°W
Report Text: KRHP 230335Z AUTO 25005KT 10SM -RA BKN023 OVC041 09/09 A2988 RMK AO2 P0005 T00930091
Loading
Personal Weather Stations






























Interactive Weather Map New forecast layout! Learn more

10-Day Weather Forecast

Advertisements
Track Severe Weather on mobile